createdAt,value
2022-09-28T00:00:02.705Z,9.90
2022-09-28T00:02:35.317Z,9.80
2022-09-28T00:05:03.444Z,9.80
2022-09-28T00:07:33.553Z,9.80
2022-09-28T00:10:01.357Z,9.80
2022-09-28T00:12:31.444Z,9.80
2022-09-28T00:14:59.405Z,9.90
2022-09-28T00:17:29.554Z,9.80
2022-09-28T00:20:01.205Z,9.80
2022-09-28T00:22:32.816Z,9.80
2022-09-28T00:25:01.893Z,9.90
2022-09-28T00:27:31.141Z,9.90
2022-09-28T00:30:02.121Z,9.90
2022-09-28T00:32:32.861Z,9.90
2022-09-28T00:35:04.647Z,9.90
2022-09-28T00:37:32.549Z,9.90
2022-09-28T00:40:02.031Z,9.90
2022-09-28T00:42:33.772Z,9.90
2022-09-28T00:45:02.296Z,9.90
2022-09-28T00:47:42.056Z,9.90
2022-09-28T00:50:36.744Z,9.90
2022-09-28T00:53:12.500Z,9.90
2022-09-28T00:55:49.272Z,9.90
2022-09-28T00:58:22.503Z,9.90
2022-09-28T01:00:53.300Z,9.90
2022-09-28T01:03:23.989Z,9.90
2022-09-28T01:06:01.702Z,9.90
2022-09-28T01:08:32.378Z,9.90
2022-09-28T01:11:02.176Z,9.90
2022-09-28T01:13:32.697Z,9.90
2022-09-28T01:16:08.733Z,9.90
2022-09-28T01:18:48.601Z,9.90
2022-09-28T01:21:23.756Z,9.90
2022-09-28T01:24:19.813Z,10.00
2022-09-28T01:27:06.292Z,10.00
2022-09-28T01:29:53.793Z,10.00
2022-09-28T01:32:28.319Z,10.00
2022-09-28T01:35:01.186Z,10.00
2022-09-28T01:37:38.306Z,10.00
2022-09-28T01:40:09.872Z,10.00
2022-09-28T01:42:50.174Z,10.00
2022-09-28T01:45:24.736Z,10.00
2022-09-28T01:47:57.648Z,10.00
2022-09-28T01:50:29.592Z,10.00
2022-09-28T01:53:08.901Z,10.00
2022-09-28T01:55:42.874Z,10.10
2022-09-28T01:58:18.668Z,10.10
2022-09-28T02:00:54.739Z,10.10
2022-09-28T02:03:30.384Z,10.10
2022-09-28T02:06:02.724Z,10.10
2022-09-28T02:08:38.340Z,10.10
2022-09-28T02:11:14.298Z,10.00
2022-09-28T02:13:50.762Z,10.00
2022-09-28T02:16:23.948Z,10.10
2022-09-28T02:18:54.902Z,10.10
2022-09-28T02:21:29.475Z,10.10
2022-09-28T02:24:05.798Z,10.10
2022-09-28T02:26:40.322Z,10.10
2022-09-28T02:29:13.189Z,10.10
2022-09-28T02:31:41.186Z,10.10
2022-09-28T02:34:09.312Z,10.20
2022-09-28T02:36:37.299Z,10.20
2022-09-28T02:39:06.647Z,10.30
2022-09-28T02:41:47.396Z,10.20
2022-09-28T02:44:33.856Z,10.20
2022-09-28T02:47:09.012Z,10.30
2022-09-28T02:49:45.214Z,10.30
2022-09-28T02:52:39.803Z,10.20
2022-09-28T02:55:30.242Z,10.20
2022-09-28T02:58:15.061Z,10.30
2022-09-28T03:00:51.600Z,10.20
2022-09-28T03:03:23.196Z,10.30
2022-09-28T03:06:01.212Z,10.30
2022-09-28T03:08:35.622Z,10.30
2022-09-28T03:11:11.197Z,10.20
2022-09-28T03:13:40.620Z,10.30
2022-09-28T03:16:19.112Z,10.30
2022-09-28T03:18:50.823Z,10.30
2022-09-28T03:21:18.640Z,10.30
2022-09-28T03:23:47.787Z,10.20
2022-09-28T03:26:19.528Z,10.20
2022-09-28T03:28:50.958Z,10.20
2022-09-28T03:31:22.350Z,10.20
2022-09-28T03:33:55.656Z,10.20
2022-09-28T03:36:28.183Z,10.30
2022-09-28T03:38:56.314Z,10.30
2022-09-28T03:41:27.645Z,10.30
2022-09-28T03:43:55.507Z,10.20
2022-09-28T03:46:32.083Z,10.20
2022-09-28T03:49:01.391Z,10.20
2022-09-28T03:51:30.469Z,10.20
2022-09-28T03:54:01.040Z,10.20
2022-09-28T03:56:28.832Z,10.10
2022-09-28T03:58:56.658Z,10.10
2022-09-28T04:01:29.279Z,10.10
2022-09-28T04:03:58.415Z,10.10
2022-09-28T04:06:26.857Z,10.00
2022-09-28T04:08:54.685Z,10.00
2022-09-28T04:11:25.149Z,10.00
2022-09-28T04:13:55.007Z,9.90
2022-09-28T04:16:28.248Z,9.90
2022-09-28T04:18:56.334Z,9.90
2022-09-28T04:21:27.285Z,9.90
2022-09-28T04:23:58.005Z,9.90
2022-09-28T04:26:28.345Z,9.90
2022-09-28T04:29:14.432Z,10.00
2022-09-28T04:31:45.668Z,10.00
2022-09-28T04:34:14.771Z,10.10
2022-09-28T04:36:42.711Z,10.10
2022-09-28T04:39:14.970Z,10.10
2022-09-28T04:41:45.244Z,10.20
2022-09-28T04:44:13.051Z,10.20
2022-09-28T04:46:47.540Z,10.20
2022-09-28T04:49:19.445Z,10.10
2022-09-28T04:51:51.288Z,10.20
2022-09-28T04:54:21.533Z,10.20
2022-09-28T04:56:49.336Z,10.20
2022-09-28T04:59:19.856Z,10.20
2022-09-28T05:01:49.377Z,10.20
2022-09-28T05:04:22.334Z,10.20
2022-09-28T05:06:53.216Z,10.20
2022-09-28T05:09:24.176Z,10.10
2022-09-28T05:11:56.072Z,10.20
2022-09-28T05:14:27.587Z,10.10
2022-09-28T05:16:58.024Z,10.10
2022-09-28T05:19:30.744Z,10.10
2022-09-28T05:22:00.428Z,10.10
2022-09-28T05:24:29.403Z,10.10
2022-09-28T05:26:59.696Z,10.00
2022-09-28T05:29:32.025Z,10.10
2022-09-28T05:32:02.999Z,10.10
2022-09-28T05:34:30.825Z,10.00
2022-09-28T05:37:01.024Z,10.10
2022-09-28T05:39:37.809Z,10.00
2022-09-28T05:42:07.885Z,10.00
2022-09-28T05:44:38.479Z,10.00
2022-09-28T05:47:10.011Z,10.00
2022-09-28T05:49:39.185Z,10.00
2022-09-28T05:52:06.987Z,10.00
2022-09-28T05:54:35.046Z,10.10
2022-09-28T05:57:04.199Z,10.10
2022-09-28T05:59:37.072Z,10.10
2022-09-28T06:02:07.268Z,10.10
2022-09-28T06:04:36.270Z,10.10
2022-09-28T06:07:05.476Z,10.10
2022-09-28T06:09:36.986Z,10.10
2022-09-28T06:12:07.214Z,10.20
2022-09-28T06:14:34.967Z,10.20
2022-09-28T06:17:04.374Z,10.20
2022-09-28T06:19:37.273Z,10.30
2022-09-28T06:22:06.311Z,10.40
2022-09-28T06:24:35.161Z,10.40
2022-09-28T06:27:05.424Z,10.40
2022-09-28T06:29:37.303Z,10.50
2022-09-28T06:32:14.695Z,10.50
2022-09-28T06:34:51.674Z,10.50
2022-09-28T06:37:25.864Z,10.50
2022-09-28T06:39:56.961Z,10.50
2022-09-28T06:42:28.459Z,10.40
2022-09-28T06:44:59.132Z,10.50
2022-09-28T06:47:28.324Z,10.40
2022-09-28T06:49:58.927Z,10.50
2022-09-28T06:52:30.490Z,10.50
2022-09-28T06:54:59.420Z,10.60
2022-09-28T06:57:27.251Z,10.70
2022-09-28T06:59:56.383Z,10.70
2022-09-28T07:02:26.628Z,10.80
2022-09-28T07:04:59.273Z,10.90
2022-09-28T07:07:31.680Z,10.90
2022-09-28T07:10:03.019Z,11.00
2022-09-28T07:12:33.161Z,11.00
2022-09-28T07:15:01.445Z,11.10
2022-09-28T07:17:29.469Z,11.20
2022-09-28T07:20:14.406Z,11.20
2022-09-28T07:22:45.327Z,11.40
2022-09-28T07:25:14.437Z,11.50
2022-09-28T07:27:44.628Z,11.70
2022-09-28T07:30:14.566Z,11.90
2022-09-28T07:32:43.605Z,12.20
2022-09-28T07:35:13.923Z,12.50
2022-09-28T07:37:42.046Z,12.80
2022-09-28T07:40:32.526Z,13.10
2022-09-28T07:43:07.271Z,13.40
2022-09-28T07:45:38.505Z,13.70
2022-09-28T07:48:06.897Z,13.80
2022-09-28T07:50:44.579Z,14.10
2022-09-28T07:53:14.575Z,14.50
2022-09-28T07:55:42.409Z,15.00
2022-09-28T07:58:11.650Z,15.30
2022-09-28T08:00:42.690Z,15.40
2022-09-28T08:03:13.054Z,15.60
2022-09-28T08:05:44.537Z,15.80
2022-09-28T08:08:15.420Z,15.90
2022-09-28T08:10:47.976Z,16.00
2022-09-28T08:13:19.167Z,16.50
2022-09-28T08:15:51.800Z,17.10
2022-09-28T08:18:19.923Z,17.50
2022-09-28T08:21:11.523Z,17.90
2022-09-28T08:23:41.887Z,18.20
2022-09-28T08:26:15.376Z,18.60
2022-09-28T08:28:45.103Z,18.70
2022-09-28T08:31:13.220Z,18.90
2022-09-28T08:33:42.226Z,19.00
2022-09-28T08:36:12.799Z,18.70
2022-09-28T08:38:43.367Z,18.50
2022-09-28T08:41:22.360Z,18.40
2022-09-28T08:44:13.666Z,18.50
2022-09-28T08:46:47.997Z,18.40
2022-09-28T08:49:26.615Z,18.00
2022-09-28T08:52:02.867Z,17.80
2022-09-28T08:54:39.135Z,17.80
2022-09-28T08:57:12.859Z,18.20
2022-09-28T08:59:50.375Z,18.90
2022-09-28T09:02:29.067Z,19.30
2022-09-28T09:04:59.484Z,19.60
2022-09-28T09:07:57.996Z,19.40
2022-09-28T09:11:00.551Z,19.30
2022-09-28T09:13:52.893Z,19.70
2022-09-28T09:16:41.198Z,19.80
2022-09-28T09:19:17.506Z,19.00
2022-09-28T09:21:52.500Z,18.10
2022-09-28T09:24:34.271Z,17.60
2022-09-28T09:27:16.392Z,17.00
2022-09-28T09:30:01.553Z,16.60
2022-09-28T09:32:47.589Z,16.30
2022-09-28T09:35:31.599Z,16.40
2022-09-28T09:38:19.839Z,16.30
2022-09-28T09:41:04.785Z,16.00
2022-09-28T09:43:48.424Z,15.80
2022-09-28T09:46:20.175Z,15.50
2022-09-28T09:48:54.183Z,15.20
2022-09-28T09:51:34.031Z,15.10
2022-09-28T09:54:11.086Z,15.30
2022-09-28T09:56:48.120Z,15.80
2022-09-28T09:59:22.971Z,16.50
2022-09-28T10:01:54.664Z,16.90
2022-09-28T10:04:28.265Z,17.00
2022-09-28T10:07:00.274Z,17.00
2022-09-28T10:09:36.372Z,16.90
2022-09-28T10:12:12.073Z,17.00
2022-09-28T10:14:43.567Z,16.90
2022-09-28T10:17:19.990Z,16.90
2022-09-28T10:19:51.804Z,16.90
2022-09-28T10:22:28.700Z,17.00
2022-09-28T10:24:58.669Z,17.10
2022-09-28T10:27:32.840Z,17.10
2022-09-28T10:30:04.259Z,17.10
2022-09-28T10:32:39.986Z,17.10
2022-09-28T10:35:23.640Z,17.10
2022-09-28T10:37:55.686Z,17.20
2022-09-28T10:40:44.003Z,16.90
2022-09-28T10:43:27.284Z,16.60
2022-09-28T10:46:06.082Z,16.10
2022-09-28T10:48:53.184Z,15.80
2022-09-28T10:51:24.013Z,15.70
2022-09-28T10:54:05.598Z,15.50
2022-09-28T10:56:40.788Z,15.40
2022-09-28T10:59:38.659Z,15.20
2022-09-28T11:02:34.874Z,14.90
2022-09-28T11:05:08.291Z,14.80
2022-09-28T11:07:49.654Z,14.60
2022-09-28T11:10:23.634Z,14.40
2022-09-28T11:12:54.501Z,14.50
2022-09-28T11:15:28.564Z,14.60
2022-09-28T11:17:58.064Z,14.70
2022-09-28T11:20:40.316Z,14.70
2022-09-28T11:23:27.196Z,14.90
2022-09-28T11:26:03.319Z,15.40
2022-09-28T11:28:36.254Z,15.80
2022-09-28T11:31:07.813Z,16.00
2022-09-28T11:33:39.075Z,16.40
2022-09-28T11:36:26.828Z,16.60
2022-09-28T11:39:05.160Z,16.70
2022-09-28T11:42:01.833Z,16.70
2022-09-28T11:44:41.328Z,16.50
2022-09-28T11:47:35.467Z,16.70
2022-09-28T11:50:09.041Z,16.90
2022-09-28T11:52:42.201Z,17.10
2022-09-28T11:55:19.099Z,17.20
2022-09-28T11:57:56.261Z,17.40
2022-09-28T12:00:25.740Z,17.30
2022-09-28T12:03:03.339Z,17.20
2022-09-28T12:05:36.760Z,17.00
2022-09-28T12:08:13.528Z,16.80
2022-09-28T12:10:49.479Z,16.60
2022-09-28T12:13:22.640Z,16.60
2022-09-28T12:18:52.432Z,16.20
2022-09-28T12:21:39.439Z,16.10
2022-09-28T12:24:18.502Z,16.10
2022-09-28T12:26:53.053Z,15.90
2022-09-28T12:29:30.858Z,15.80
2022-09-28T12:32:11.206Z,15.70
2022-09-28T12:34:44.121Z,15.50
2022-09-28T12:37:46.888Z,15.50
2022-09-28T12:40:40.543Z,15.40
2022-09-28T12:43:36.922Z,15.60
2022-09-28T12:46:36.591Z,16.00
2022-09-28T12:52:29.005Z,16.50
2022-09-28T12:55:12.927Z,16.40
2022-09-28T12:57:54.276Z,16.40
2022-09-28T13:00:25.636Z,16.30
2022-09-28T13:03:10.798Z,16.30
2022-09-28T13:06:09.784Z,16.40
2022-09-28T13:08:55.306Z,16.50
2022-09-28T13:11:34.248Z,16.70
2022-09-28T13:14:22.159Z,16.70
2022-09-28T13:17:00.411Z,16.80
2022-09-28T13:19:39.460Z,16.70
2022-09-28T13:22:26.007Z,16.50
2022-09-28T13:25:02.439Z,16.40
2022-09-28T13:27:34.485Z,16.40
2022-09-28T13:30:09.628Z,16.50
2022-09-28T13:32:39.234Z,16.70
2022-09-28T13:35:16.635Z,16.80
2022-09-28T13:37:44.568Z,17.00
2022-09-28T13:40:16.349Z,17.10
2022-09-28T13:43:02.865Z,17.00
2022-09-28T13:45:54.563Z,16.90
2022-09-28T13:48:37.752Z,16.80
2022-09-28T13:51:26.604Z,16.90
2022-09-28T13:54:30.151Z,16.70
2022-09-28T13:57:13.558Z,16.70
2022-09-28T13:59:57.163Z,16.80
2022-09-28T14:02:32.821Z,16.60
2022-09-28T14:05:05.563Z,16.60
2022-09-28T14:08:14.871Z,16.40
2022-09-28T14:10:54.340Z,16.30
2022-09-28T14:14:07.580Z,16.10
2022-09-28T14:16:39.400Z,16.00
2022-09-28T14:19:11.364Z,16.00
2022-09-28T14:22:05.586Z,16.10
2022-09-28T14:24:56.404Z,16.10
2022-09-28T14:27:42.775Z,16.10
2022-09-28T14:30:23.197Z,16.20
2022-09-28T14:32:57.846Z,16.20
2022-09-28T14:35:34.746Z,16.20
2022-09-28T14:38:26.521Z,16.20
2022-09-28T14:41:15.376Z,16.40
2022-09-28T14:44:14.285Z,16.50
2022-09-28T14:46:48.278Z,16.50
2022-09-28T14:49:52.715Z,16.40
2022-09-28T14:52:42.365Z,16.20
2022-09-28T14:55:18.354Z,16.10
2022-09-28T14:57:54.061Z,16.00
2022-09-28T15:00:25.907Z,16.00
2022-09-28T15:03:00.436Z,16.00
2022-09-28T15:05:38.226Z,16.00
2022-09-28T15:08:12.375Z,15.90
2022-09-28T15:10:47.237Z,15.80
2022-09-28T15:13:23.299Z,15.80
2022-09-28T15:15:54.622Z,15.70
2022-09-28T15:19:09.688Z,15.70
2022-09-28T15:21:40.927Z,15.80
2022-09-28T15:24:32.681Z,15.70
2022-09-28T15:27:02.943Z,15.60
2022-09-28T15:29:33.377Z,15.50
2022-09-28T15:32:02.616Z,15.50
2022-09-28T15:34:50.666Z,15.40
2022-09-28T15:37:22.236Z,15.40
2022-09-28T15:39:53.734Z,15.40
2022-09-28T15:42:25.548Z,15.40
2022-09-28T15:45:31.094Z,15.40
2022-09-28T15:48:22.116Z,15.30
2022-09-28T15:51:01.648Z,15.20
2022-09-28T15:53:38.581Z,15.20
2022-09-28T15:56:13.198Z,15.20
2022-09-28T15:58:44.471Z,15.10
2022-09-28T16:01:48.712Z,15.00
2022-09-28T16:04:40.437Z,15.00
2022-09-28T16:07:35.553Z,14.90
2022-09-28T16:10:26.760Z,14.90
2022-09-28T16:12:58.816Z,14.80
2022-09-28T16:15:32.448Z,14.70
2022-09-28T16:18:06.684Z,14.70
2022-09-28T16:20:36.685Z,14.70
2022-09-28T16:23:20.558Z,14.60
2022-09-28T16:26:01.298Z,14.60
2022-09-28T16:28:53.939Z,14.50
2022-09-28T16:31:34.580Z,14.50
2022-09-28T16:34:13.789Z,14.40
2022-09-28T16:36:47.214Z,14.40
2022-09-28T16:39:18.484Z,14.30
2022-09-28T16:41:51.870Z,14.30
2022-09-28T16:44:32.131Z,14.30
2022-09-28T16:47:00.893Z,14.20
2022-09-28T16:49:32.216Z,14.20
2022-09-28T16:52:03.716Z,14.10
2022-09-28T16:54:48.863Z,14.10
2022-09-28T16:57:17.128Z,14.00
2022-09-28T16:59:47.619Z,14.00
2022-09-28T17:02:42.196Z,14.00
2022-09-28T17:05:10.092Z,13.90
2022-09-28T17:07:42.088Z,13.80
2022-09-28T17:10:19.179Z,13.60
2022-09-28T17:12:47.967Z,13.50
2022-09-28T17:15:19.499Z,13.40
2022-09-28T17:17:51.307Z,13.20
2022-09-28T17:20:23.379Z,13.10
2022-09-28T17:22:54.624Z,12.80
2022-09-28T17:25:25.719Z,12.70
2022-09-28T17:27:57.432Z,12.70
2022-09-28T17:30:28.844Z,12.50
2022-09-28T17:32:59.923Z,12.40
2022-09-28T17:35:34.095Z,12.30
2022-09-28T17:38:04.168Z,12.20
2022-09-28T17:40:32.337Z,12.10
2022-09-28T17:43:03.901Z,12.00
2022-09-28T17:45:41.739Z,11.90
2022-09-28T17:48:17.752Z,11.90
2022-09-28T17:50:47.344Z,11.80
2022-09-28T17:53:16.362Z,11.80
2022-09-28T17:55:44.417Z,11.70
2022-09-28T17:58:18.623Z,11.70
2022-09-28T18:00:51.468Z,11.70
2022-09-28T18:03:21.298Z,11.70
2022-09-28T18:05:53.604Z,11.60
2022-09-28T18:08:24.879Z,11.70
2022-09-28T18:10:54.741Z,11.70
2022-09-28T18:13:22.580Z,11.70
2022-09-28T18:15:57.638Z,11.80
2022-09-28T18:18:27.146Z,11.70
2022-09-28T18:20:55.295Z,11.70
2022-09-28T18:23:23.180Z,11.70
2022-09-28T18:25:52.988Z,11.70
2022-09-28T18:28:23.331Z,11.60
2022-09-28T18:30:55.855Z,11.70
2022-09-28T18:33:26.094Z,11.60
2022-09-28T18:35:55.239Z,11.60
2022-09-28T18:38:25.246Z,11.70
2022-09-28T18:40:54.872Z,11.70
2022-09-28T18:43:26.235Z,11.70
2022-09-28T18:45:58.403Z,11.70
2022-09-28T18:48:28.937Z,11.60
2022-09-28T18:50:57.971Z,11.50
2022-09-28T18:53:28.284Z,11.50
2022-09-28T18:55:56.902Z,11.50
2022-09-28T18:58:28.756Z,11.40
2022-09-28T19:01:18.688Z,11.40
2022-09-28T19:03:48.526Z,11.50
2022-09-28T19:06:18.037Z,11.40
2022-09-28T19:08:52.278Z,11.50
2022-09-28T19:11:22.792Z,11.60
2022-09-28T19:13:50.928Z,11.60
2022-09-28T19:16:27.205Z,11.60
2022-09-28T19:18:56.618Z,11.60
2022-09-28T19:21:26.882Z,11.60
2022-09-28T19:23:55.430Z,11.50
2022-09-28T19:26:27.324Z,11.50
2022-09-28T19:28:56.567Z,11.50
2022-09-28T19:31:27.369Z,11.30
2022-09-28T19:33:55.189Z,11.20
2022-09-28T19:36:28.749Z,11.20
2022-09-28T19:38:57.690Z,11.10
2022-09-28T19:41:45.678Z,11.10
2022-09-28T19:44:25.541Z,11.10
2022-09-28T19:47:02.169Z,11.10
2022-09-28T19:49:37.117Z,11.20
2022-09-28T19:52:14.224Z,11.20
2022-09-28T19:54:44.740Z,11.20
2022-09-28T19:57:15.563Z,11.10
2022-09-28T19:59:47.420Z,11.10
2022-09-28T20:02:23.522Z,11.10
2022-09-28T20:04:54.702Z,11.10
2022-09-28T20:07:26.091Z,11.20
2022-09-28T20:09:53.879Z,11.30
2022-09-28T20:12:31.273Z,11.30
2022-09-28T20:15:01.266Z,11.30
2022-09-28T20:17:37.073Z,11.30
2022-09-28T20:20:07.536Z,11.40
2022-09-28T20:22:35.373Z,11.40
2022-09-28T20:25:04.770Z,11.30
2022-09-28T20:27:36.413Z,11.30
2022-09-28T20:30:04.569Z,11.20
2022-09-28T20:32:35.309Z,11.20
2022-09-28T20:35:10.136Z,11.20
2022-09-28T20:37:39.122Z,11.20
2022-09-28T20:40:07.840Z,11.20
2022-09-28T20:42:35.629Z,11.20
2022-09-28T20:45:05.734Z,11.20
2022-09-28T20:47:38.459Z,11.20
2022-09-28T20:50:09.951Z,11.20
2022-09-28T20:52:40.056Z,11.10
2022-09-28T20:55:09.844Z,11.00
2022-09-28T20:57:39.166Z,11.00
2022-09-28T21:00:10.360Z,11.00
2022-09-28T21:02:41.997Z,11.00
2022-09-28T21:05:12.536Z,10.90
2022-09-28T21:07:43.942Z,10.90
2022-09-28T21:10:11.981Z,10.90
2022-09-28T21:12:40.588Z,10.90
2022-09-28T21:15:12.876Z,10.80
2022-09-28T21:17:44.581Z,10.70
2022-09-28T21:20:14.425Z,10.70
2022-09-28T21:22:42.207Z,10.70
2022-09-28T21:25:13.339Z,10.70
2022-09-28T21:27:43.699Z,10.70
2022-09-28T21:30:14.588Z,10.70
2022-09-28T21:32:47.173Z,10.70
2022-09-28T21:35:19.084Z,10.70
2022-09-28T21:37:49.472Z,10.70
2022-09-28T21:40:20.296Z,10.70
2022-09-28T21:42:48.271Z,10.70
2022-09-28T21:45:19.971Z,10.70
2022-09-28T21:47:56.093Z,10.70
2022-09-28T21:50:25.329Z,10.60
2022-09-28T21:52:56.697Z,10.60
2022-09-28T21:55:25.192Z,10.60
2022-09-28T21:57:55.318Z,10.50
2022-09-28T22:00:24.127Z,10.40
2022-09-28T22:02:53.397Z,10.30
2022-09-28T22:05:24.595Z,10.20
2022-09-28T22:07:53.532Z,10.20
2022-09-28T22:10:21.320Z,10.10
2022-09-28T22:12:50.456Z,10.10
2022-09-28T22:15:18.674Z,10.00
2022-09-28T22:17:50.067Z,10.00
2022-09-28T22:20:21.578Z,10.00
2022-09-28T22:22:50.003Z,10.00
2022-09-28T22:25:20.415Z,9.90
2022-09-28T22:27:50.544Z,9.90
2022-09-28T22:30:22.014Z,9.90
2022-09-28T22:32:49.826Z,10.00
2022-09-28T22:35:24.312Z,10.00
2022-09-28T22:37:55.707Z,10.00
2022-09-28T22:40:23.992Z,10.00
2022-09-28T22:42:52.003Z,10.00
2022-09-28T22:45:21.361Z,10.10
2022-09-28T22:47:51.224Z,10.20
2022-09-28T22:50:21.692Z,10.10
2022-09-28T22:52:51.002Z,10.10
2022-09-28T22:55:21.196Z,10.10
2022-09-28T22:57:51.296Z,10.10
2022-09-28T23:00:21.338Z,10.10
2022-09-28T23:02:49.470Z,10.10
2022-09-28T23:05:20.153Z,10.00
2022-09-28T23:07:51.364Z,10.00
2022-09-28T23:10:20.580Z,10.00
2022-09-28T23:12:50.674Z,9.90
2022-09-28T23:15:20.769Z,9.80
2022-09-28T23:17:52.010Z,9.70
2022-09-28T23:20:28.348Z,9.70
2022-09-28T23:23:00.832Z,9.60
2022-09-28T23:25:32.148Z,9.50
2022-09-28T23:28:02.011Z,9.50
2022-09-28T23:30:30.086Z,9.40
2022-09-28T23:33:00.365Z,9.50
2022-09-28T23:35:30.331Z,9.40
2022-09-28T23:38:00.725Z,9.30
2022-09-28T23:40:30.010Z,9.30
2022-09-28T23:43:01.810Z,9.30
2022-09-28T23:45:31.895Z,9.30
2022-09-28T23:47:59.706Z,9.30
2022-09-28T23:50:29.060Z,9.20
2022-09-28T23:52:57.014Z,9.20
2022-09-28T23:55:29.038Z,9.20
2022-09-28T23:57:58.067Z,9.20
